sensor_id;sensor_type;location;lat;lon;timestamp;pressure;altitude;pressure_sealevel;temperature;humidity
16431;BME280;8325;49.284;7.238;2022-12-18T05:04:42;99883.97;;;-9.39;89.12
16431;BME280;8325;49.284;7.238;2022-12-18T05:08:54;99878.88;;;-9.37;89.14
16431;BME280;8325;49.284;7.238;2022-12-18T05:13:05;99889.13;;;-9.48;89.45
16431;BME280;8325;49.284;7.238;2022-12-18T05:17:17;99904.19;;;-9.40;89.41
16431;BME280;8325;49.284;7.238;2022-12-18T05:21:30;99904.94;;;-9.29;88.61
16431;BME280;8325;49.284;7.238;2022-12-18T05:25:41;99892.25;;;-9.28;88.80
16431;BME280;8325;49.284;7.238;2022-12-18T05:29:52;99888.16;;;-9.38;88.65
16431;BME280;8325;49.284;7.238;2022-12-18T05:34:04;99902.56;;;-9.46;89.14
16431;BME280;8325;49.284;7.238;2022-12-18T05:38:16;99915.19;;;-9.41;88.82
16431;BME280;8325;49.284;7.238;2022-12-18T05:42:27;99919.38;;;-9.39;88.63
16431;BME280;8325;49.284;7.238;2022-12-18T05:46:39;99932.81;;;-9.34;88.36
16431;BME280;8325;49.284;7.238;2022-12-18T05:50:51;99938.75;;;-9.39;88.59
16431;BME280;8325;49.284;7.238;2022-12-18T05:55:02;99950.63;;;-9.44;87.21
16431;BME280;8325;49.284;7.238;2022-12-18T05:59:14;99949.91;;;-9.57;86.30
16431;BME280;8325;49.284;7.238;2022-12-18T06:03:25;99939.03;;;-9.67;87.12
16431;BME280;8325;49.284;7.238;2022-12-18T06:07:44;99947.47;;;-9.68;86.99
16431;BME280;8325;49.284;7.238;2022-12-18T06:11:55;99944.84;;;-9.57;87.96
16431;BME280;8325;49.284;7.238;2022-12-18T06:16:07;99938.81;;;-9.45;89.97
16431;BME280;8325;49.284;7.238;2022-12-18T06:20:19;99931.97;;;-9.34;89.39
16431;BME280;8325;49.284;7.238;2022-12-18T06:24:31;99933.63;;;-9.33;89.28
16431;BME280;8325;49.284;7.238;2022-12-18T06:28:42;99931.97;;;-9.34;89.37
16431;BME280;8325;49.284;7.238;2022-12-18T06:32:54;99948.09;;;-9.44;89.14
16431;BME280;8325;49.284;7.238;2022-12-18T06:37:07;99947.34;;;-9.53;89.53
16431;BME280;8325;49.284;7.238;2022-12-18T06:41:20;99948.19;;;-9.54;89.10
16431;BME280;8325;49.284;7.238;2022-12-18T06:45:32;99944.00;;;-9.58;89.39
16431;BME280;8325;49.284;7.238;2022-12-18T06:49:43;99950.84;;;-9.66;89.60
16431;BME280;8325;49.284;7.238;2022-12-18T06:53:55;99944.84;;;-9.59;89.37
16431;BME280;8325;49.284;7.238;2022-12-18T06:58:06;99949.13;;;-9.65;89.46
16431;BME280;8325;49.284;7.238;2022-12-18T07:02:18;99954.16;;;-9.64;89.03
16431;BME280;8325;49.284;7.238;2022-12-18T07:06:30;99935.50;;;-9.47;89.12
16431;BME280;8325;49.284;7.238;2022-12-18T07:10:42;99944.66;;;-9.37;89.08
16431;BME280;8325;49.284;7.238;2022-12-18T07:14:58;99951.13;;;-9.12;88.72
16431;BME280;8325;49.284;7.238;2022-12-18T07:19:10;99946.94;;;-9.13;88.43
16431;BME280;8325;49.284;7.238;2022-12-18T07:23:21;99959.59;;;-9.14;88.11
16431;BME280;8325;49.284;7.238;2022-12-18T07:27:33;99957.06;;;-9.13;87.12
16431;BME280;8325;49.284;7.238;2022-12-18T07:31:44;99968.94;;;-9.19;84.98
16431;BME280;8325;49.284;7.238;2022-12-18T07:35:59;99977.41;;;-9.22;84.46
16431;BME280;8325;49.284;7.238;2022-12-18T07:40:11;99991.00;;;-9.34;83.41
16431;BME280;8325;49.284;7.238;2022-12-18T07:44:23;99993.59;;;-9.40;83.12
16431;BME280;8325;49.284;7.238;2022-12-18T07:48:35;100007.78;;;-9.22;85.87
16431;BME280;8325;49.284;7.238;2022-12-18T07:52:47;100006.22;;;-9.35;83.85
16431;BME280;8325;49.284;7.238;2022-12-18T07:56:59;99985.78;;;-9.18;83.54
16431;BME280;8325;49.284;7.238;2022-12-18T08:01:11;99989.13;;;-9.15;83.02
16431;BME280;8325;49.284;7.238;2022-12-18T08:05:23;99980.66;;;-9.11;82.74
16431;BME280;8325;49.284;7.238;2022-12-18T08:09:35;99969.47;;;-8.91;82.92
16431;BME280;8325;49.284;7.238;2022-12-18T08:13:46;99973.09;;;-9.14;82.19
16431;BME280;8325;49.284;7.238;2022-12-18T08:17:58;99961.44;;;-9.29;82.66
16431;BME280;8325;49.284;7.238;2022-12-18T08:22:09;99959.00;;;-9.39;83.14
16431;BME280;8325;49.284;7.238;2022-12-18T08:26:21;99960.53;;;-9.24;83.43
16431;BME280;8325;49.284;7.238;2022-12-18T08:30:33;99963.03;;;-9.21;83.14
16431;BME280;8325;49.284;7.238;2022-12-18T08:34:44;99955.78;;;-9.55;83.29
16431;BME280;8325;49.284;7.238;2022-12-18T08:38:56;99956.72;;;-9.67;84.23
16431;BME280;8325;49.284;7.238;2022-12-18T08:43:09;99957.41;;;-9.50;83.98
16431;BME280;8325;49.284;7.238;2022-12-18T08:47:40;99961.44;;;-9.30;83.76
16431;BME280;8325;49.284;7.238;2022-12-18T08:51:54;99955.50;;;-9.28;84.40
16431;BME280;8325;49.284;7.238;2022-12-18T08:56:06;99973.06;;;-9.11;83.85
16431;BME280;8325;49.284;7.238;2022-12-18T09:00:17;99972.06;;;-8.97;84.32
16431;BME280;8325;49.284;7.238;2022-12-18T09:04:29;99969.38;;;-8.84;84.52
16431;BME280;8325;49.284;7.238;2022-12-18T09:08:41;99959.09;;;-8.70;84.66
16431;BME280;8325;49.284;7.238;2022-12-18T09:12:53;99985.09;;;-8.55;84.36
16431;BME280;8325;49.284;7.238;2022-12-18T09:17:05;100000.09;;;-8.40;84.09
16431;BME280;8325;49.284;7.238;2022-12-18T09:21:20;100010.00;;;-8.25;84.10
16431;BME280;8325;49.284;7.238;2022-12-18T09:25:33;100034.47;;;-8.22;84.95
16431;BME280;8325;49.284;7.238;2022-12-18T09:29:46;100019.84;;;-8.03;84.20
16431;BME280;8325;49.284;7.238;2022-12-18T09:33:58;100011.25;;;-7.93;85.27
16431;BME280;8325;49.284;7.238;2022-12-18T09:38:14;100016.78;;;-7.70;85.17
16431;BME280;8325;49.284;7.238;2022-12-18T09:42:26;100007.25;;;-7.54;85.93
16431;BME280;8325;49.284;7.238;2022-12-18T09:46:45;100020.22;;;-7.21;86.38
16431;BME280;8325;49.284;7.238;2022-12-18T09:51:39;100018.78;;;-6.86;88.38
16431;BME280;8325;49.284;7.238;2022-12-18T09:56:38;99992.22;;;-6.72;86.29
16431;BME280;8325;49.284;7.238;2022-12-18T10:01:09;99996.19;;;-6.58;86.16
16431;BME280;8325;49.284;7.238;2022-12-18T10:05:52;99995.13;;;-6.48;85.72
16431;BME280;8325;49.284;7.238;2022-12-18T10:10:41;99993.88;;;-6.29;85.13
16431;BME280;8325;49.284;7.238;2022-12-18T10:15:31;99987.88;;;-6.24;85.40
16431;BME280;8325;49.284;7.238;2022-12-18T10:19:52;99982.84;;;-6.28;84.95
16431;BME280;8325;49.284;7.238;2022-12-18T10:24:25;99978.38;;;-6.18;84.83
16431;BME280;8325;49.284;7.238;2022-12-18T10:28:40;99964.78;;;-6.17;84.87
16431;BME280;8325;49.284;7.238;2022-12-18T10:32:53;99956.94;;;-6.06;84.40
16431;BME280;8325;49.284;7.238;2022-12-18T10:37:06;99960.53;;;-6.16;84.63
16431;BME280;8325;49.284;7.238;2022-12-18T10:41:25;99973.13;;;-6.10;85.76
16431;BME280;8325;49.284;7.238;2022-12-18T10:45:41;99959.44;;;-6.05;85.29
16431;BME280;8325;49.284;7.238;2022-12-18T10:49:53;99951.38;;;-6.23;85.36
16431;BME280;8325;49.284;7.238;2022-12-18T10:58:28;99937.94;;;-5.93;85.08
16431;BME280;8325;49.284;7.238;2022-12-18T11:02:43;99937.56;;;-5.78;85.26
16431;BME280;8325;49.284;7.238;2022-12-18T11:07:04;99937.25;;;-5.65;84.48
16431;BME280;8325;49.284;7.238;2022-12-18T11:11:33;99935.66;;;-5.69;85.72
16431;BME280;8325;49.284;7.238;2022-12-18T11:16:01;99920.75;;;-5.50;84.46
16431;BME280;8325;49.284;7.238;2022-12-18T11:20:33;99916.19;;;-5.39;84.85
16431;BME280;8325;49.284;7.238;2022-12-18T11:25:01;99903.31;;;-5.33;84.45
16431;BME280;8325;49.284;7.238;2022-12-18T11:29:43;99910.66;;;-5.22;84.15
16431;BME280;8325;49.284;7.238;2022-12-18T11:34:01;99903.13;;;-5.27;84.44
16431;BME280;8325;49.284;7.238;2022-12-18T11:50:54;99891.22;;;-5.25;85.34
16431;BME280;8325;49.284;7.238;2022-12-18T12:13:18;99887.66;;;-4.90;85.41
16431;BME280;8325;49.284;7.238;2022-12-18T12:17:42;99878.22;;;-4.86;85.56
16431;BME280;8325;49.284;7.238;2022-12-18T12:39:48;99848.69;;;-4.65;86.22
16431;BME280;8325;49.284;7.238;2022-12-18T12:44:06;99841.53;;;-4.52;86.32
16431;BME280;8325;49.284;7.238;2022-12-18T12:48:49;99829.31;;;-4.43;86.59
16431;BME280;8325;49.284;7.238;2022-12-18T12:53:01;99832.91;;;-4.50;85.94
16431;BME280;8325;49.284;7.238;2022-12-18T12:57:30;99824.97;;;-4.41;85.97
16431;BME280;8325;49.284;7.238;2022-12-18T13:02:00;99821.19;;;-4.27;86.14
16431;BME280;8325;49.284;7.238;2022-12-18T13:06:40;99810.88;;;-4.24;86.36
16431;BME280;8325;49.284;7.238;2022-12-18T13:11:00;99809.19;;;-4.25;86.65
16431;BME280;8325;49.284;7.238;2022-12-18T13:15:34;99804.56;;;-4.14;86.45
16431;BME280;8325;49.284;7.238;2022-12-18T13:19:51;99800.06;;;-4.06;85.80
16431;BME280;8325;49.284;7.238;2022-12-18T13:24:25;99803.97;;;-3.96;85.97
16431;BME280;8325;49.284;7.238;2022-12-18T13:41:44;99789.88;;;-3.82;86.13
16431;BME280;8325;49.284;7.238;2022-12-18T13:46:03;99799.25;;;-3.83;86.26
16431;BME280;8325;49.284;7.238;2022-12-18T13:50:23;99795.66;;;-3.77;86.03
16431;BME280;8325;49.284;7.238;2022-12-18T13:54:40;99794.88;;;-3.79;86.37
16431;BME280;8325;49.284;7.238;2022-12-18T13:59:14;99799.44;;;-3.87;87.07
16431;BME280;8325;49.284;7.238;2022-12-18T14:03:28;99793.22;;;-3.80;86.82
16431;BME280;8325;49.284;7.238;2022-12-18T14:07:40;99785.38;;;-3.76;86.85
16431;BME280;8325;49.284;7.238;2022-12-18T14:11:59;99777.81;;;-3.77;86.85
16431;BME280;8325;49.284;7.238;2022-12-18T14:16:29;99780.66;;;-3.86;87.16
16431;BME280;8325;49.284;7.238;2022-12-18T14:20:44;99791.59;;;-3.83;87.07
16431;BME280;8325;49.284;7.238;2022-12-18T14:29:28;99776.78;;;-3.73;86.82
16431;BME280;8325;49.284;7.238;2022-12-18T14:33:40;99778.59;;;-3.75;87.21
16431;BME280;8325;49.284;7.238;2022-12-18T14:37:52;99789.78;;;-3.79;87.67
16431;BME280;8325;49.284;7.238;2022-12-18T14:42:04;99783.13;;;-3.83;87.37
16431;BME280;8325;49.284;7.238;2022-12-18T14:46:25;99788.13;;;-3.80;87.54
16431;BME280;8325;49.284;7.238;2022-12-18T14:50:39;99795.88;;;-3.83;88.02
16431;BME280;8325;49.284;7.238;2022-12-18T14:54:51;99794.38;;;-3.89;88.14
16431;BME280;8325;49.284;7.238;2022-12-18T14:59:20;99793.31;;;-3.83;87.99
16431;BME280;8325;49.284;7.238;2022-12-18T15:03:35;99791.72;;;-3.86;87.97
16431;BME280;8325;49.284;7.238;2022-12-18T15:07:49;99792.53;;;-3.85;88.30
16431;BME280;8325;49.284;7.238;2022-12-18T15:12:02;99795.19;;;-3.88;88.66
16431;BME280;8325;49.284;7.238;2022-12-18T15:16:14;99787.66;;;-3.91;88.83
16431;BME280;8325;49.284;7.238;2022-12-18T15:20:26;99791.91;;;-3.92;88.34
16431;BME280;8325;49.284;7.238;2022-12-18T15:24:37;99792.13;;;-3.98;88.85
16431;BME280;8325;49.284;7.238;2022-12-18T15:33:24;99797.19;;;-3.97;89.06
16431;BME280;8325;49.284;7.238;2022-12-18T15:37:37;99794.78;;;-4.01;89.22
16431;BME280;8325;49.284;7.238;2022-12-18T15:41:50;99796.81;;;-4.11;89.57
16431;BME280;8325;49.284;7.238;2022-12-18T15:46:24;99799.22;;;-4.06;89.33
16431;BME280;8325;49.284;7.238;2022-12-18T15:50:37;99800.72;;;-4.01;88.98
16431;BME280;8325;49.284;7.238;2022-12-18T15:54:49;99801.63;;;-4.02;88.85
16431;BME280;8325;49.284;7.238;2022-12-18T15:59:20;99795.78;;;-4.05;88.88
16431;BME280;8325;49.284;7.238;2022-12-18T16:03:32;99803.56;;;-4.10;88.91
16431;BME280;8325;49.284;7.238;2022-12-18T16:07:44;99792.22;;;-4.26;89.60
16431;BME280;8325;49.284;7.238;2022-12-18T16:11:56;99788.56;;;-4.19;89.65
16431;BME280;8325;49.284;7.238;2022-12-18T16:16:08;99779.16;;;-4.17;89.53
16431;BME280;8325;49.284;7.238;2022-12-18T16:20:21;99783.38;;;-4.16;89.38
16431;BME280;8325;49.284;7.238;2022-12-18T16:24:33;99788.44;;;-4.14;89.34
16431;BME280;8325;49.284;7.238;2022-12-18T16:28:47;99785.06;;;-4.15;89.12
16431;BME280;8325;49.284;7.238;2022-12-18T16:32:59;99781.72;;;-4.17;89.37
16431;BME280;8325;49.284;7.238;2022-12-18T16:37:13;99783.63;;;-4.24;89.35
16431;BME280;8325;49.284;7.238;2022-12-18T16:41:24;99782.91;;;-4.27;89.40
16431;BME280;8325;49.284;7.238;2022-12-18T16:45:42;99782.91;;;-4.27;90.10
16431;BME280;8325;49.284;7.238;2022-12-18T16:49:53;99780.41;;;-4.29;89.34
16431;BME280;8325;49.284;7.238;2022-12-18T16:54:05;99779.94;;;-4.40;90.19
16431;BME280;8325;49.284;7.238;2022-12-18T16:58:22;99781.28;;;-4.30;89.66
16431;BME280;8325;49.284;7.238;2022-12-18T17:02:34;99783.00;;;-4.30;89.03
16431;BME280;8325;49.284;7.238;2022-12-18T17:06:46;99780.75;;;-4.40;89.27
16431;BME280;8325;49.284;7.238;2022-12-18T17:11:06;99785.97;;;-4.43;89.82
16431;BME280;8325;49.284;7.238;2022-12-18T17:15:18;99786.97;;;-4.48;90.27
16431;BME280;8325;49.284;7.238;2022-12-18T17:19:30;99788.00;;;-4.54;90.41
16431;BME280;8325;49.284;7.238;2022-12-18T17:23:42;99779.56;;;-4.56;90.68
16431;BME280;8325;49.284;7.238;2022-12-18T17:27:54;99783.94;;;-4.59;91.35
16431;BME280;8325;49.284;7.238;2022-12-18T17:32:06;99772.78;;;-4.55;90.67
16431;BME280;8325;49.284;7.238;2022-12-18T17:36:17;99762.31;;;-4.48;90.68
16431;BME280;8325;49.284;7.238;2022-12-18T17:40:31;99772.31;;;-4.42;90.29
16431;BME280;8325;49.284;7.238;2022-12-18T17:44:44;99782.38;;;-4.37;90.34
16431;BME280;8325;49.284;7.238;2022-12-18T17:48:57;99756.91;;;-4.38;90.42
16431;BME280;8325;49.284;7.238;2022-12-18T17:53:08;99756.81;;;-4.35;89.66
16431;BME280;8325;49.284;7.238;2022-12-18T17:57:20;99756.72;;;-4.32;89.74
16431;BME280;8325;49.284;7.238;2022-12-18T18:01:34;99753.91;;;-4.25;89.61
16431;BME280;8325;49.284;7.238;2022-12-18T18:05:55;99750.38;;;-4.21;89.13
16431;BME280;8325;49.284;7.238;2022-12-18T18:10:08;99751.00;;;-4.14;88.44
16431;BME280;8325;49.284;7.238;2022-12-18T18:14:19;99749.22;;;-4.12;88.79
16431;BME280;8325;49.284;7.238;2022-12-18T18:18:31;99742.13;;;-4.04;88.60
16431;BME280;8325;49.284;7.238;2022-12-18T18:22:43;99732.44;;;-4.19;88.13
16431;BME280;8325;49.284;7.238;2022-12-18T18:26:54;99730.75;;;-4.19;89.09
16431;BME280;8325;49.284;7.238;2022-12-18T18:31:08;99718.81;;;-4.18;89.26
16431;BME280;8325;49.284;7.238;2022-12-18T18:35:20;99710.16;;;-4.14;88.61
16431;BME280;8325;49.284;7.238;2022-12-18T18:39:52;99719.22;;;-4.05;88.98
16431;BME280;8325;49.284;7.238;2022-12-18T18:44:03;99710.22;;;-4.15;88.38
16431;BME280;8325;49.284;7.238;2022-12-18T18:48:15;99700.75;;;-4.12;89.02
16431;BME280;8325;49.284;7.238;2022-12-18T18:52:26;99701.50;;;-4.10;88.79
16431;BME280;8325;49.284;7.238;2022-12-18T18:56:38;99713.19;;;-4.03;88.37
16431;BME280;8325;49.284;7.238;2022-12-18T19:01:13;99696.25;;;-4.05;88.87
16431;BME280;8325;49.284;7.238;2022-12-18T19:05:24;99699.94;;;-4.14;88.84
16431;BME280;8325;49.284;7.238;2022-12-18T19:09:36;99699.69;;;-4.06;89.42
16431;BME280;8325;49.284;7.238;2022-12-18T19:13:47;99697.19;;;-4.08;88.97
16431;BME280;8325;49.284;7.238;2022-12-18T19:17:59;99709.25;;;-4.13;89.11
16431;BME280;8325;49.284;7.238;2022-12-18T19:22:10;99714.03;;;-4.04;88.18
16431;BME280;8325;49.284;7.238;2022-12-18T19:26:23;99705.56;;;-4.04;88.86
16431;BME280;8325;49.284;7.238;2022-12-18T19:30:38;99704.25;;;-4.16;89.18
16431;BME280;8325;49.284;7.238;2022-12-18T19:34:51;99711.81;;;-4.13;88.78
16431;BME280;8325;49.284;7.238;2022-12-18T19:39:12;99701.78;;;-4.18;89.24
16431;BME280;8325;49.284;7.238;2022-12-18T19:43:25;99710.06;;;-4.11;89.13
16431;BME280;8325;49.284;7.238;2022-12-18T19:47:37;99699.81;;;-4.09;89.46
16431;BME280;8325;49.284;7.238;2022-12-18T19:51:48;99682.78;;;-4.09;89.32
16431;BME280;8325;49.284;7.238;2022-12-18T19:56:05;99680.75;;;-4.01;89.20
16431;BME280;8325;49.284;7.238;2022-12-18T20:00:17;99669.78;;;-4.03;89.28
16431;BME280;8325;49.284;7.238;2022-12-18T20:04:29;99677.22;;;-3.97;88.79
16431;BME280;8325;49.284;7.238;2022-12-18T20:08:42;99677.22;;;-3.97;89.05
16431;BME280;8325;49.284;7.238;2022-12-18T20:12:53;99691.19;;;-4.07;88.89
16431;BME280;8325;49.284;7.238;2022-12-18T20:17:06;99678.31;;;-4.04;89.26
16431;BME280;8325;49.284;7.238;2022-12-18T20:21:19;99673.66;;;-4.16;89.70
16431;BME280;8325;49.284;7.238;2022-12-18T20:25:31;99683.72;;;-4.11;90.06
16431;BME280;8325;49.284;7.238;2022-12-18T20:29:43;99680.88;;;-4.04;89.63
16431;BME280;8325;49.284;7.238;2022-12-18T20:33:55;99667.34;;;-4.06;89.57
16431;BME280;8325;49.284;7.238;2022-12-18T20:38:12;99664.81;;;-4.06;90.09
16431;BME280;8325;49.284;7.238;2022-12-18T20:42:23;99673.28;;;-4.05;90.35
16431;BME280;8325;49.284;7.238;2022-12-18T20:46:35;99667.47;;;-4.09;89.80
16431;BME280;8325;49.284;7.238;2022-12-18T20:50:56;99675.53;;;-3.98;90.22
16431;BME280;8325;49.284;7.238;2022-12-18T20:55:10;99667.84;;;-3.96;89.91
16431;BME280;8325;49.284;7.238;2022-12-18T20:59:22;99672.72;;;-3.90;90.24
16431;BME280;8325;49.284;7.238;2022-12-18T21:03:36;99672.84;;;-3.93;89.76
16431;BME280;8325;49.284;7.238;2022-12-18T21:07:48;99673.56;;;-3.89;89.77
16431;BME280;8325;49.284;7.238;2022-12-18T21:12:00;99675.81;;;-3.82;89.48
16431;BME280;8325;49.284;7.238;2022-12-18T21:16:30;99668.16;;;-3.82;89.47
16431;BME280;8325;49.284;7.238;2022-12-18T21:20:47;99669.78;;;-3.79;89.75
16431;BME280;8325;49.284;7.238;2022-12-18T21:25:06;99664.66;;;-3.79;89.64
16431;BME280;8325;49.284;7.238;2022-12-18T21:29:23;99651.16;;;-3.81;89.20
16431;BME280;8325;49.284;7.238;2022-12-18T21:33:40;99657.78;;;-3.77;89.62
16431;BME280;8325;49.284;7.238;2022-12-18T21:37:52;99660.28;;;-3.76;89.69
16431;BME280;8325;49.284;7.238;2022-12-18T21:47:18;99664.44;;;-3.73;89.64
16431;BME280;8325;49.284;7.238;2022-12-18T21:51:34;99664.88;;;-3.85;89.53
16431;BME280;8325;49.284;7.238;2022-12-18T21:55:46;99676.91;;;-3.87;89.89
16431;BME280;8325;49.284;7.238;2022-12-18T21:59:57;99670.00;;;-3.85;89.60
16431;BME280;8325;49.284;7.238;2022-12-18T22:04:09;99680.22;;;-3.85;90.08
16431;BME280;8325;49.284;7.238;2022-12-18T22:08:21;99676.44;;;-3.75;89.76
16431;BME280;8325;49.284;7.238;2022-12-18T22:12:32;99684.97;;;-3.76;89.94
16431;BME280;8325;49.284;7.238;2022-12-18T22:16:55;99690.06;;;-3.75;89.94
16431;BME280;8325;49.284;7.238;2022-12-18T22:21:27;99682.38;;;-3.75;90.21
16431;BME280;8325;49.284;7.238;2022-12-18T22:25:40;99674.66;;;-3.73;90.08
16431;BME280;8325;49.284;7.238;2022-12-18T22:29:51;99661.84;;;-3.72;89.87
